createdAt,value
2017-07-15T00:00:08.523Z,19.00
2017-07-15T00:02:42.123Z,19.00
2017-07-15T00:05:15.719Z,18.90
2017-07-15T00:07:49.347Z,19.00
2017-07-15T00:10:23.851Z,18.90
2017-07-15T00:12:57.643Z,18.90
2017-07-15T00:15:31.250Z,18.90
2017-07-15T00:18:05.778Z,18.80
2017-07-15T00:20:39.470Z,18.90
2017-07-15T00:23:13.030Z,18.80
2017-07-15T00:25:46.874Z,18.80
2017-07-15T00:28:20.479Z,18.80
2017-07-15T00:30:54.079Z,18.80
2017-07-15T00:33:27.784Z,18.90
2017-07-15T00:36:01.487Z,18.90
2017-07-15T00:38:35.086Z,18.80
2017-07-15T00:41:08.623Z,18.80
2017-07-15T00:43:43.207Z,18.80
2017-07-15T00:46:16.799Z,18.80
2017-07-15T00:48:50.409Z,18.80
2017-07-15T00:51:24.931Z,18.80
2017-07-15T00:53:58.462Z,18.70
2017-07-15T00:56:32.169Z,18.80
2017-07-15T00:59:05.926Z,18.80
2017-07-15T01:01:39.532Z,18.80
2017-07-15T01:04:13.126Z,18.80
2017-07-15T01:06:47.418Z,18.60
2017-07-15T01:09:21.054Z,18.60
2017-07-15T01:11:55.555Z,18.60
2017-07-15T01:14:29.284Z,18.60
2017-07-15T01:17:02.870Z,18.70
2017-07-15T01:19:36.683Z,18.70
2017-07-15T01:22:10.230Z,18.70
2017-07-15T01:24:44.187Z,18.70
2017-07-15T01:27:17.939Z,18.70
2017-07-15T01:29:51.796Z,18.70
2017-07-15T01:32:25.608Z,18.70
2017-07-15T01:34:59.099Z,18.70
2017-07-15T01:37:32.803Z,18.70
2017-07-15T01:40:06.504Z,18.70
2017-07-15T01:42:39.999Z,18.70
2017-07-15T01:45:13.572Z,18.70
2017-07-15T01:47:47.195Z,18.80
2017-07-15T01:50:20.700Z,18.80
2017-07-15T01:52:54.283Z,18.60
2017-07-15T01:55:27.895Z,18.60
2017-07-15T01:58:01.459Z,18.60
2017-07-15T02:00:36.019Z,18.60
2017-07-15T02:03:09.588Z,18.60
2017-07-15T02:05:43.219Z,18.60
2017-07-15T02:08:16.823Z,18.60
2017-07-15T02:10:50.423Z,18.60
2017-07-15T02:13:24.015Z,18.70
2017-07-15T02:15:57.620Z,18.80
2017-07-15T02:18:32.125Z,18.60
2017-07-15T02:21:05.745Z,18.60
2017-07-15T02:23:39.447Z,18.60
2017-07-15T02:26:13.050Z,18.60
2017-07-15T02:28:46.646Z,18.50
2017-07-15T02:31:20.243Z,18.50
2017-07-15T02:33:54.877Z,18.50
2017-07-15T02:36:28.559Z,18.50
2017-07-15T02:39:02.487Z,18.50
2017-07-15T02:41:36.178Z,18.60
2017-07-15T02:44:09.883Z,18.60
2017-07-15T02:46:43.492Z,18.50
2017-07-15T02:49:16.982Z,18.50
2017-07-15T02:51:50.583Z,18.50
2017-07-15T02:54:24.516Z,18.50
2017-07-15T02:56:58.215Z,18.50
2017-07-15T02:59:31.995Z,18.50
2017-07-15T03:02:05.502Z,18.50
2017-07-15T03:04:39.410Z,18.40
2017-07-15T03:07:13.640Z,18.40
2017-07-15T03:09:47.347Z,18.40
2017-07-15T03:12:20.923Z,18.30
2017-07-15T03:14:54.591Z,18.30
2017-07-15T03:17:28.329Z,18.30
2017-07-15T03:20:02.230Z,18.20
2017-07-15T03:22:35.934Z,18.20
2017-07-15T03:25:09.744Z,18.20
2017-07-15T03:27:44.324Z,18.10
2017-07-15T03:30:18.171Z,18.10
2017-07-15T03:32:52.563Z,18.10
2017-07-15T03:35:26.495Z,18.10
2017-07-15T03:37:59.967Z,18.20
2017-07-15T03:40:33.596Z,18.10
2017-07-15T03:43:08.015Z,18.10
2017-07-15T03:45:41.581Z,18.20
2017-07-15T03:48:15.993Z,18.10
2017-07-15T03:50:49.628Z,18.10
2017-07-15T03:53:23.230Z,18.10
2017-07-15T03:55:56.939Z,18.10
2017-07-15T03:58:30.538Z,18.10
2017-07-15T04:01:04.234Z,18.20
2017-07-15T04:03:37.742Z,18.20
2017-07-15T04:06:11.438Z,18.20
2017-07-15T04:08:45.014Z,18.20
2017-07-15T04:11:18.711Z,18.10
2017-07-15T04:13:52.343Z,18.10
2017-07-15T04:16:25.938Z,18.10
2017-07-15T04:19:00.363Z,18.10
2017-07-15T04:21:34.375Z,18.10
2017-07-15T04:24:07.970Z,18.10
2017-07-15T04:26:41.647Z,18.10
2017-07-15T04:29:15.163Z,18.10
2017-07-15T04:31:48.850Z,18.10
2017-07-15T04:34:22.583Z,18.10
2017-07-15T04:36:56.179Z,18.20
2017-07-15T04:39:29.878Z,18.20
2017-07-15T04:42:03.366Z,18.20
2017-07-15T04:44:37.182Z,18.20
2017-07-15T04:47:10.783Z,18.10
2017-07-15T04:49:44.372Z,18.10
2017-07-15T04:52:17.983Z,18.20
2017-07-15T04:54:52.302Z,18.20
2017-07-15T04:57:25.992Z,18.20
2017-07-15T04:59:59.559Z,18.20
2017-07-15T05:02:33.206Z,18.30
2017-07-15T05:05:06.799Z,18.20
2017-07-15T05:07:40.410Z,18.20
2017-07-15T05:10:13.979Z,18.20
2017-07-15T05:12:47.606Z,18.20
2017-07-15T05:15:21.309Z,18.20
2017-07-15T05:17:55.015Z,18.20
2017-07-15T05:20:28.620Z,18.20
2017-07-15T05:23:02.527Z,18.20
2017-07-15T05:25:36.067Z,18.10
2017-07-15T05:28:09.628Z,18.20
2017-07-15T05:30:43.231Z,18.30
2017-07-15T05:33:16.819Z,18.30
2017-07-15T05:35:50.935Z,18.30
2017-07-15T05:38:24.535Z,18.30
2017-07-15T05:40:58.133Z,18.40
2017-07-15T05:43:31.739Z,18.40
2017-07-15T05:46:05.302Z,18.40
2017-07-15T05:48:39.039Z,18.40
2017-07-15T05:51:12.634Z,18.40
2017-07-15T05:53:46.335Z,18.40
2017-07-15T05:56:20.760Z,18.40
2017-07-15T05:58:54.672Z,18.40
2017-07-15T06:01:29.083Z,18.50
2017-07-15T06:04:02.783Z,18.50
2017-07-15T06:06:37.408Z,18.40
2017-07-15T06:09:11.011Z,18.40
2017-07-15T06:11:44.616Z,18.40
2017-07-15T06:14:18.211Z,18.50
2017-07-15T06:16:51.916Z,18.50
2017-07-15T06:19:25.417Z,18.60
2017-07-15T06:21:59.120Z,18.60
2017-07-15T06:24:32.726Z,18.60
2017-07-15T06:27:07.294Z,18.70
2017-07-15T06:29:41.042Z,18.70
2017-07-15T06:32:14.647Z,18.60
2017-07-15T06:34:48.253Z,18.70
2017-07-15T06:37:22.043Z,18.60
2017-07-15T06:39:56.462Z,18.60
2017-07-15T06:42:30.031Z,18.60
2017-07-15T06:45:03.667Z,18.60
2017-07-15T06:47:37.271Z,18.60
2017-07-15T06:50:10.987Z,18.60
2017-07-15T06:52:45.034Z,18.60
2017-07-15T06:55:18.785Z,18.60
2017-07-15T06:57:52.590Z,18.60
2017-07-15T07:00:26.195Z,18.60
2017-07-15T07:02:59.995Z,18.60
2017-07-15T07:05:34.615Z,18.70
2017-07-15T07:08:08.323Z,18.70
2017-07-15T07:10:42.703Z,18.80
2017-07-15T07:13:16.341Z,18.80
2017-07-15T07:15:50.051Z,18.80
2017-07-15T07:18:24.808Z,18.60
2017-07-15T07:20:58.559Z,18.60
2017-07-15T07:23:32.238Z,18.60
2017-07-15T07:26:05.950Z,18.60
2017-07-15T07:28:39.688Z,18.60
2017-07-15T07:31:13.278Z,18.60
2017-07-15T07:33:46.879Z,18.60
2017-07-15T07:36:20.582Z,18.60
2017-07-15T07:38:54.164Z,18.60
2017-07-15T07:41:28.406Z,18.60
2017-07-15T07:44:02.207Z,18.70
2017-07-15T07:46:35.916Z,18.70
2017-07-15T07:49:10.223Z,18.70
2017-07-15T07:51:43.827Z,18.80
2017-07-15T07:54:17.499Z,18.80
2017-07-15T07:56:51.111Z,18.80
2017-07-15T07:59:25.240Z,18.80
2017-07-15T08:01:58.944Z,18.80
2017-07-15T08:04:32.731Z,18.80
2017-07-15T08:07:07.163Z,18.80
2017-07-15T08:09:41.251Z,18.90
2017-07-15T08:12:14.874Z,18.90
2017-07-15T08:14:48.588Z,18.90
2017-07-15T08:17:22.288Z,18.90
2017-07-15T08:19:55.764Z,19.00
2017-07-15T08:22:29.538Z,19.00
2017-07-15T08:25:03.295Z,19.00
2017-07-15T08:27:36.887Z,19.00
2017-07-15T08:30:10.587Z,19.00
2017-07-15T08:32:44.191Z,19.10
2017-07-15T08:35:17.797Z,19.10
2017-07-15T08:37:51.399Z,19.20
2017-07-15T08:40:25.083Z,19.20
2017-07-15T08:42:58.771Z,19.20
2017-07-15T08:45:32.399Z,19.20
2017-07-15T08:48:05.984Z,19.30
2017-07-15T08:50:39.803Z,19.30
2017-07-15T08:53:13.327Z,19.40
2017-07-15T08:55:47.414Z,19.50
2017-07-15T08:58:21.127Z,19.60
2017-07-15T09:00:54.815Z,19.60
2017-07-15T09:03:28.565Z,19.60
2017-07-15T09:06:02.556Z,19.50
2017-07-15T09:08:37.152Z,19.60
2017-07-15T09:11:10.859Z,19.60
2017-07-15T09:13:44.559Z,19.70
2017-07-15T09:16:18.157Z,19.70
2017-07-15T09:18:52.072Z,19.60
2017-07-15T09:21:25.678Z,19.60
2017-07-15T09:23:59.982Z,19.50
2017-07-15T09:26:33.683Z,19.50
2017-07-15T09:29:07.486Z,19.50
2017-07-15T09:31:42.019Z,19.60
2017-07-15T09:34:15.692Z,19.70
2017-07-15T09:36:49.263Z,19.80
2017-07-15T09:39:23.124Z,19.80
2017-07-15T09:41:56.726Z,19.80
2017-07-15T09:44:31.031Z,19.80
2017-07-15T09:47:04.727Z,19.80
2017-07-15T09:49:38.635Z,19.80
2017-07-15T09:52:12.246Z,19.80
2017-07-15T09:54:46.051Z,19.80
2017-07-15T09:57:20.262Z,19.70
2017-07-15T09:59:53.967Z,19.70
2017-07-15T10:02:27.671Z,19.70
2017-07-15T10:05:01.259Z,19.70
2017-07-15T10:07:34.870Z,19.70
2017-07-15T10:10:08.607Z,19.70
2017-07-15T10:12:42.275Z,19.70
2017-07-15T10:15:15.981Z,19.70
2017-07-15T10:17:49.554Z,19.70
2017-07-15T10:20:23.899Z,19.70
2017-07-15T10:22:57.812Z,19.70
2017-07-15T10:25:31.608Z,19.80
2017-07-15T10:28:05.127Z,19.80
2017-07-15T10:30:38.706Z,19.80
2017-07-15T10:33:13.235Z,19.70
2017-07-15T10:35:46.935Z,19.70
2017-07-15T10:38:20.636Z,19.80
2017-07-15T10:40:54.283Z,19.80
2017-07-15T10:43:28.823Z,19.80
2017-07-15T10:46:02.464Z,19.80
2017-07-15T10:48:36.135Z,19.80
2017-07-15T10:51:09.964Z,19.80
2017-07-15T10:53:43.675Z,19.80
2017-07-15T10:56:17.265Z,19.80
2017-07-15T10:58:50.779Z,19.90
2017-07-15T11:01:24.348Z,19.90
2017-07-15T11:03:58.795Z,20.00
2017-07-15T11:06:32.496Z,20.00
2017-07-15T11:09:06.138Z,20.00
2017-07-15T11:11:39.699Z,20.00
2017-07-15T11:14:13.174Z,20.00
2017-07-15T11:16:46.741Z,20.00
2017-07-15T11:19:20.199Z,20.00
2017-07-15T11:21:53.780Z,19.90
2017-07-15T11:24:27.340Z,19.90
2017-07-15T11:27:00.811Z,19.90
2017-07-15T11:29:34.344Z,19.80
2017-07-15T11:32:07.896Z,19.90
2017-07-15T11:34:41.500Z,19.90
2017-07-15T11:37:15.058Z,19.90
2017-07-15T11:39:48.707Z,19.90
2017-07-15T11:42:22.427Z,20.00
2017-07-15T11:44:56.034Z,19.90
2017-07-15T11:47:29.595Z,19.90
2017-07-15T11:50:03.258Z,19.90
2017-07-15T11:52:36.803Z,19.90
2017-07-15T11:55:10.321Z,20.00
2017-07-15T11:57:43.881Z,20.00
2017-07-15T12:00:17.535Z,20.10
2017-07-15T12:02:51.127Z,20.10
2017-07-15T12:05:24.598Z,20.10
2017-07-15T12:07:58.151Z,20.10
2017-07-15T12:10:31.723Z,20.10
2017-07-15T12:13:05.296Z,20.10
2017-07-15T12:15:38.759Z,20.10
2017-07-15T12:18:12.284Z,20.10
2017-07-15T12:20:45.911Z,20.10
2017-07-15T12:23:19.598Z,20.10
2017-07-15T12:25:53.183Z,20.10
2017-07-15T12:28:26.714Z,20.10
2017-07-15T12:31:00.330Z,20.10
2017-07-15T12:33:34.006Z,20.20
2017-07-15T12:36:07.618Z,20.40
2017-07-15T12:38:41.086Z,20.50
2017-07-15T12:41:14.545Z,20.60
2017-07-15T12:43:48.115Z,20.70
2017-07-15T12:46:21.600Z,20.70
2017-07-15T12:48:55.284Z,20.60
2017-07-15T12:51:28.855Z,20.50
2017-07-15T12:54:02.474Z,20.50
2017-07-15T12:56:35.970Z,20.40
2017-07-15T12:59:09.453Z,20.40
2017-07-15T13:01:43.154Z,20.30
2017-07-15T13:04:16.710Z,20.30
2017-07-15T13:06:50.332Z,20.40
2017-07-15T13:09:23.895Z,20.40
2017-07-15T13:11:57.591Z,20.40
2017-07-15T13:14:31.071Z,20.40
2017-07-15T13:17:04.703Z,20.50
2017-07-15T13:19:38.182Z,20.60
2017-07-15T13:22:11.652Z,20.60
2017-07-15T13:24:45.399Z,20.60
2017-07-15T13:27:18.971Z,20.60
2017-07-15T13:29:52.674Z,20.60
2017-07-15T13:32:26.475Z,20.60
2017-07-15T13:35:00.276Z,20.70
2017-07-15T13:37:33.824Z,20.60
2017-07-15T13:40:07.476Z,20.60
2017-07-15T13:42:41.289Z,20.50
2017-07-15T13:45:14.883Z,20.50
2017-07-15T13:47:48.691Z,20.50
2017-07-15T13:50:23.631Z,20.50
2017-07-15T13:52:57.166Z,20.40
2017-07-15T13:55:30.923Z,20.50
2017-07-15T13:58:04.611Z,20.50
2017-07-15T14:00:38.937Z,20.50
2017-07-15T14:03:12.648Z,20.50
2017-07-15T14:05:46.967Z,20.50
2017-07-15T14:08:20.670Z,20.50
2017-07-15T14:10:54.263Z,20.50
2017-07-15T14:13:27.869Z,20.50
2017-07-15T14:16:01.366Z,20.60
2017-07-15T14:18:35.648Z,20.50
2017-07-15T14:21:09.283Z,20.60
2017-07-15T14:23:42.863Z,20.60
2017-07-15T14:26:16.567Z,20.60
2017-07-15T14:28:50.691Z,20.60
2017-07-15T14:31:24.396Z,20.60
2017-07-15T14:33:58.301Z,20.60
2017-07-15T14:36:31.792Z,20.60
2017-07-15T14:39:05.402Z,20.60
2017-07-15T14:41:39.013Z,20.60
2017-07-15T14:44:16.100Z,20.60
2017-07-15T14:46:50.508Z,20.60
2017-07-15T14:49:24.107Z,20.60
2017-07-15T14:51:57.910Z,20.60
2017-07-15T14:54:31.510Z,20.60
2017-07-15T14:57:05.115Z,20.60
2017-07-15T14:59:38.793Z,20.60
2017-07-15T15:02:12.465Z,20.60
2017-07-15T15:04:46.124Z,20.60
2017-07-15T15:07:20.027Z,20.60
2017-07-15T15:09:53.571Z,20.70
2017-07-15T15:12:27.206Z,20.70
2017-07-15T15:15:00.923Z,20.70
2017-07-15T15:17:35.447Z,20.70
2017-07-15T15:20:09.150Z,20.70
2017-07-15T15:22:42.856Z,20.70
2017-07-15T15:25:16.456Z,20.70
2017-07-15T15:27:50.057Z,20.70
2017-07-15T15:30:23.858Z,20.70
2017-07-15T15:32:57.866Z,20.70
2017-07-15T15:35:32.591Z,20.60
2017-07-15T15:38:06.276Z,20.70
2017-07-15T15:40:40.388Z,20.70
2017-07-15T15:43:14.011Z,20.70
2017-07-15T15:45:47.506Z,20.60
2017-07-15T15:48:21.106Z,20.70
2017-07-15T15:50:54.807Z,20.70
2017-07-15T15:53:28.410Z,20.60
2017-07-15T15:56:02.022Z,20.60
2017-07-15T15:58:35.611Z,20.60
2017-07-15T16:01:10.092Z,20.60
2017-07-15T16:03:43.726Z,20.60
2017-07-15T16:06:17.333Z,20.60
2017-07-15T16:08:51.259Z,20.60
2017-07-15T16:11:25.237Z,20.60
2017-07-15T16:13:58.922Z,20.60
2017-07-15T16:16:32.675Z,20.60
2017-07-15T16:19:06.459Z,20.60
2017-07-15T16:21:40.440Z,20.60
2017-07-15T16:24:14.071Z,20.60
2017-07-15T16:26:47.939Z,20.60
2017-07-15T16:29:21.685Z,20.60
2017-07-15T16:31:55.280Z,20.60
2017-07-15T16:34:28.983Z,20.60
2017-07-15T16:37:03.297Z,20.60
2017-07-15T16:39:37.006Z,20.60
2017-07-15T16:42:10.915Z,20.60
2017-07-15T16:44:44.820Z,20.60
2017-07-15T16:47:18.433Z,20.60
2017-07-15T16:49:52.223Z,20.60
2017-07-15T16:52:25.927Z,20.60
2017-07-15T16:54:59.731Z,20.60
2017-07-15T16:57:33.332Z,20.60
2017-07-15T17:00:06.931Z,20.60
2017-07-15T17:02:40.531Z,20.60
2017-07-15T17:05:14.128Z,20.60
2017-07-15T17:07:48.711Z,20.60
2017-07-15T17:10:22.335Z,20.60
2017-07-15T17:12:56.856Z,20.60
2017-07-15T17:15:31.391Z,20.60
2017-07-15T17:18:05.198Z,20.60
2017-07-15T17:20:39.011Z,20.60
2017-07-15T17:23:12.601Z,20.60
2017-07-15T17:25:46.205Z,20.50
2017-07-15T17:28:19.807Z,20.60
2017-07-15T17:30:53.407Z,20.50
2017-07-15T17:33:26.875Z,20.60
2017-07-15T17:36:00.517Z,20.60
2017-07-15T17:38:34.103Z,20.50
2017-07-15T17:41:07.907Z,20.60
2017-07-15T17:43:42.595Z,20.50
2017-07-15T17:46:16.871Z,20.50
2017-07-15T17:48:51.274Z,20.50
2017-07-15T17:51:25.070Z,20.50
2017-07-15T17:53:58.622Z,20.50
2017-07-15T17:56:33.099Z,20.50
2017-07-15T17:59:06.697Z,20.50
2017-07-15T18:01:40.504Z,20.50
2017-07-15T18:04:14.919Z,20.50
2017-07-15T18:06:48.749Z,20.50
2017-07-15T18:09:22.535Z,20.50
2017-07-15T18:11:57.061Z,20.50
2017-07-15T18:14:30.658Z,20.50
2017-07-15T18:17:04.137Z,20.50
2017-07-15T18:19:38.671Z,20.50
2017-07-15T18:22:12.166Z,20.40
2017-07-15T18:24:45.767Z,20.50
2017-07-15T18:27:19.372Z,20.50
2017-07-15T18:29:56.663Z,20.50
2017-07-15T18:32:30.435Z,20.40
2017-07-15T18:35:04.145Z,20.40
2017-07-15T18:37:38.590Z,20.40
2017-07-15T18:40:12.187Z,20.40
2017-07-15T18:42:45.748Z,20.40
2017-07-15T18:45:20.104Z,20.40
2017-07-15T18:47:53.715Z,20.40
2017-07-15T18:50:27.298Z,20.40
2017-07-15T18:53:00.907Z,20.40
2017-07-15T18:55:34.606Z,20.30
2017-07-15T18:58:08.193Z,20.30
2017-07-15T19:00:41.779Z,20.30
2017-07-15T19:03:15.414Z,20.30
2017-07-15T19:05:50.902Z,20.30
2017-07-15T19:08:24.660Z,20.20
2017-07-15T19:10:58.155Z,20.20
2017-07-15T19:13:31.817Z,20.10
2017-07-15T19:16:05.574Z,20.10
2017-07-15T19:18:39.162Z,20.10
2017-07-15T19:21:13.006Z,20.10
2017-07-15T19:23:47.009Z,20.10
2017-07-15T19:26:21.404Z,20.00
2017-07-15T19:28:55.163Z,20.00
2017-07-15T19:31:29.830Z,20.00
2017-07-15T19:34:04.357Z,19.90
2017-07-15T19:36:37.947Z,19.90
2017-07-15T19:39:11.545Z,19.90
2017-07-15T19:41:45.099Z,19.80
2017-07-15T19:44:18.947Z,19.80
2017-07-15T19:46:52.646Z,19.70
2017-07-15T19:49:26.452Z,19.70
2017-07-15T19:52:00.327Z,19.70
2017-07-15T19:54:33.965Z,19.60
2017-07-15T19:57:07.667Z,19.60
2017-07-15T19:59:41.275Z,19.60
2017-07-15T20:02:14.968Z,19.60
2017-07-15T20:04:48.766Z,19.60
2017-07-15T20:07:22.363Z,19.50
2017-07-15T20:09:56.901Z,19.50
2017-07-15T20:12:30.491Z,19.50
2017-07-15T20:15:04.166Z,19.40
2017-07-15T20:17:37.805Z,19.40
2017-07-15T20:20:11.515Z,19.40
2017-07-15T20:22:45.054Z,19.30
2017-07-15T20:25:18.823Z,19.30
2017-07-15T20:27:52.362Z,19.30
2017-07-15T20:30:25.999Z,19.30
2017-07-15T20:32:59.603Z,19.30
2017-07-15T20:35:33.102Z,19.20
2017-07-15T20:38:07.521Z,19.20
2017-07-15T20:40:41.233Z,19.20
2017-07-15T20:43:15.699Z,19.20
2017-07-15T20:45:49.439Z,19.20
2017-07-15T20:48:23.247Z,19.20
2017-07-15T20:50:56.852Z,19.10
2017-07-15T20:53:37.255Z,19.10
2017-07-15T20:56:11.631Z,19.10
2017-07-15T20:58:45.326Z,19.10
2017-07-15T21:01:19.021Z,19.00
2017-07-15T21:03:53.545Z,19.00
2017-07-15T21:06:27.150Z,19.00
2017-07-15T21:09:00.755Z,19.00
2017-07-15T21:11:34.445Z,19.00
2017-07-15T21:14:08.771Z,19.00
2017-07-15T21:16:42.479Z,19.00
2017-07-15T21:19:16.188Z,19.00
2017-07-15T21:21:50.290Z,19.00
2017-07-15T21:24:23.891Z,19.00
2017-07-15T21:26:57.599Z,19.00
2017-07-15T21:29:31.666Z,19.00
2017-07-15T21:32:05.315Z,19.00
2017-07-15T21:34:38.907Z,18.90
2017-07-15T21:37:13.323Z,19.00
2017-07-15T21:39:46.829Z,18.90
2017-07-15T21:42:20.514Z,18.90
2017-07-15T21:44:54.843Z,19.00
2017-07-15T21:47:28.746Z,18.90
2017-07-15T21:50:02.451Z,18.90
2017-07-15T21:52:36.056Z,18.90
2017-07-15T21:55:09.711Z,18.90
2017-07-15T21:57:43.428Z,18.90
2017-07-15T22:00:17.886Z,18.90
2017-07-15T22:02:51.478Z,18.90
2017-07-15T22:05:24.947Z,18.90
2017-07-15T22:07:58.783Z,18.90
2017-07-15T22:10:32.379Z,18.90
2017-07-15T22:13:05.982Z,18.80
2017-07-15T22:15:39.683Z,18.80
2017-07-15T22:18:13.287Z,18.80
2017-07-15T22:20:46.890Z,18.80
2017-07-15T22:23:20.494Z,18.80
2017-07-15T22:25:54.802Z,18.80
2017-07-15T22:28:28.507Z,18.80
2017-07-15T22:31:02.087Z,18.80
2017-07-15T22:33:35.758Z,18.80
2017-07-15T22:36:10.180Z,18.80
2017-07-15T22:38:43.813Z,18.80
2017-07-15T22:41:18.219Z,18.80
2017-07-15T22:43:52.055Z,18.80
2017-07-15T22:46:25.856Z,18.80
2017-07-15T22:49:00.387Z,18.80
2017-07-15T22:51:34.088Z,18.80
2017-07-15T22:54:07.688Z,18.80
2017-07-15T22:56:41.396Z,18.90
2017-07-15T22:59:15.187Z,18.80
2017-07-15T23:01:48.887Z,18.90
2017-07-15T23:04:22.695Z,18.90
2017-07-15T23:06:56.562Z,18.90
2017-07-15T23:09:30.207Z,18.90
2017-07-15T23:12:03.802Z,18.90
2017-07-15T23:14:37.411Z,18.90
2017-07-15T23:17:11.007Z,18.90
2017-07-15T23:19:44.830Z,18.90
2017-07-15T23:22:18.621Z,18.90
2017-07-15T23:24:52.319Z,18.90
2017-07-15T23:27:27.521Z,18.90
2017-07-15T23:30:01.979Z,18.80
2017-07-15T23:32:35.779Z,18.80
2017-07-15T23:35:09.382Z,18.80
2017-07-15T23:37:42.981Z,18.80
2017-07-15T23:40:16.479Z,18.80
2017-07-15T23:42:50.082Z,18.80
2017-07-15T23:45:23.882Z,18.80
2017-07-15T23:47:57.586Z,18.80
2017-07-15T23:50:32.113Z,18.70
2017-07-15T23:53:05.815Z,18.70
2017-07-15T23:55:39.526Z,18.80
2017-07-15T23:58:14.034Z,18.80
